createdAt,value
2023-04-14T00:00:57.565Z,867.00
2023-04-14T00:01:57.714Z,862.00
2023-04-14T00:02:57.751Z,872.00
2023-04-14T00:03:57.881Z,910.00
2023-04-14T00:04:57.798Z,864.00
2023-04-14T00:05:57.791Z,890.00
2023-04-14T00:06:57.818Z,877.00
2023-04-14T00:07:57.845Z,882.00
2023-04-14T00:08:58.193Z,884.00
2023-04-14T00:09:57.962Z,897.00
2023-04-14T00:10:57.997Z,851.00
2023-04-14T00:11:58.041Z,853.00
2023-04-14T00:12:58.115Z,896.00
2023-04-14T00:13:58.130Z,894.00
2023-04-14T00:14:58.194Z,902.00
2023-04-14T00:15:58.213Z,881.00
2023-04-14T00:16:58.319Z,867.00
2023-04-14T00:17:58.385Z,881.00
2023-04-14T00:18:58.571Z,904.00
2023-04-14T00:19:58.396Z,898.00
2023-04-14T00:20:58.469Z,863.00
2023-04-14T00:21:58.463Z,863.00
2023-04-14T00:22:58.543Z,900.00
2023-04-14T00:23:58.556Z,904.00
2023-04-14T00:24:58.588Z,905.00
2023-04-14T00:25:58.736Z,873.00
2023-04-14T00:26:58.681Z,864.00
2023-04-14T00:27:58.721Z,846.00
2023-04-14T00:28:58.970Z,870.00
2023-04-14T00:29:58.829Z,846.00
2023-04-14T00:30:58.888Z,847.00
2023-04-14T00:31:58.913Z,856.00
2023-04-14T00:32:58.965Z,863.00
2023-04-14T00:33:59.480Z,860.00
2023-04-14T00:34:59.198Z,870.00
2023-04-14T00:35:59.078Z,878.00
2023-04-14T00:36:59.072Z,847.00
2023-04-14T00:37:59.132Z,802.00
2023-04-14T00:38:59.356Z,778.00
2023-04-14T00:39:59.202Z,771.00
2023-04-14T00:40:59.217Z,795.00
2023-04-14T00:41:59.286Z,769.00
2023-04-14T00:42:59.288Z,808.00
2023-04-14T00:43:59.344Z,814.00
2023-04-14T00:44:59.396Z,839.00
2023-04-14T00:45:59.518Z,862.00
2023-04-14T00:46:59.495Z,834.00
2023-04-14T00:47:59.616Z,863.00
2023-04-14T00:48:59.795Z,837.00
2023-04-14T00:49:59.606Z,798.00
2023-04-14T00:50:59.662Z,804.00
2023-04-14T00:51:59.707Z,820.00
2023-04-14T00:52:59.750Z,814.00
2023-04-14T00:53:59.784Z,793.00
2023-04-14T00:54:59.848Z,831.00
2023-04-14T00:55:59.872Z,852.00
2023-04-14T00:56:59.917Z,816.00
2023-04-14T00:57:59.959Z,837.00
2023-04-14T00:59:00.179Z,826.00
2023-04-14T01:00:00.056Z,798.00
2023-04-14T01:01:00.077Z,830.00
2023-04-14T01:02:00.238Z,830.00
2023-04-14T01:03:00.334Z,827.00
2023-04-14T01:04:00.313Z,779.00
2023-04-14T01:05:00.442Z,773.00
2023-04-14T01:06:00.324Z,742.00
2023-04-14T01:07:00.371Z,749.00
2023-04-14T01:08:00.376Z,755.00
2023-04-14T01:09:00.706Z,743.00
2023-04-14T01:10:00.445Z,737.00
2023-04-14T01:11:00.486Z,753.00
2023-04-14T01:12:00.581Z,751.00
2023-04-14T01:13:00.613Z,771.00
2023-04-14T01:14:00.651Z,770.00
2023-04-14T01:15:00.684Z,772.00
2023-04-14T01:16:00.804Z,780.00
2023-04-14T01:17:00.755Z,795.00
2023-04-14T01:18:00.884Z,794.00
2023-04-14T01:19:01.246Z,758.00
2023-04-14T01:20:00.933Z,749.00
2023-04-14T01:21:00.950Z,723.00
2023-04-14T01:22:01.009Z,740.00
2023-04-14T01:23:01.049Z,739.00
2023-04-14T01:24:01.139Z,744.00
2023-04-14T01:25:01.128Z,720.00
2023-04-14T01:26:01.184Z,727.00
2023-04-14T01:27:01.222Z,761.00
2023-04-14T01:28:01.257Z,776.00
2023-04-14T01:29:01.538Z,779.00
2023-04-14T01:30:01.381Z,755.00
2023-04-14T01:31:01.374Z,781.00
2023-04-14T01:32:01.528Z,768.00
2023-04-14T01:33:01.546Z,760.00
2023-04-14T01:34:01.479Z,713.00
2023-04-14T01:35:01.536Z,737.00
2023-04-14T01:36:01.596Z,770.00
2023-04-14T01:37:01.726Z,772.00
2023-04-14T01:38:01.708Z,788.00
2023-04-14T01:39:01.971Z,739.00
2023-04-14T01:40:01.795Z,709.00
2023-04-14T01:41:01.844Z,718.00
2023-04-14T01:42:01.869Z,703.00
2023-04-14T01:43:01.946Z,756.00
2023-04-14T01:44:01.995Z,716.00
2023-04-14T01:45:02.038Z,719.00
2023-04-14T01:46:02.141Z,736.00
2023-04-14T01:47:02.151Z,719.00
2023-04-14T01:48:02.201Z,721.00
2023-04-14T01:49:02.498Z,738.00
2023-04-14T01:50:02.265Z,746.00
2023-04-14T01:51:02.358Z,745.00
2023-04-14T01:52:02.324Z,765.00
2023-04-14T01:53:02.425Z,725.00
2023-04-14T01:54:02.436Z,710.00
2023-04-14T01:55:02.525Z,719.00
2023-04-14T01:56:02.563Z,744.00
2023-04-14T01:57:02.608Z,761.00
2023-04-14T01:58:02.624Z,774.00
2023-04-14T01:59:02.746Z,774.00
2023-04-14T02:00:02.698Z,756.00
2023-04-14T02:01:02.796Z,746.00
2023-04-14T02:02:02.877Z,738.00
2023-04-14T02:03:02.929Z,771.00
2023-04-14T02:04:03.086Z,761.00
2023-04-14T02:05:02.946Z,749.00
2023-04-14T02:06:03.028Z,725.00
2023-04-14T02:07:03.049Z,679.00
2023-04-14T02:08:03.103Z,670.00
2023-04-14T02:09:03.163Z,683.00
2023-04-14T02:10:03.237Z,698.00
2023-04-14T02:11:03.265Z,725.00
2023-04-14T02:12:03.288Z,702.00
2023-04-14T02:13:03.370Z,708.00
2023-04-14T02:14:03.377Z,731.00
2023-04-14T02:15:03.484Z,790.00
2023-04-14T02:16:03.522Z,821.00
2023-04-14T02:17:03.587Z,765.00
2023-04-14T02:18:03.653Z,736.00
2023-04-14T02:19:03.664Z,733.00
2023-04-14T02:20:03.733Z,724.00
2023-04-14T02:21:03.800Z,698.00
2023-04-14T02:22:03.832Z,677.00
2023-04-14T02:23:03.873Z,669.00
2023-04-14T02:24:03.941Z,672.00
2023-04-14T02:25:03.995Z,697.00
2023-04-14T02:26:04.006Z,710.00
2023-04-14T02:27:04.083Z,732.00
2023-04-14T02:28:04.129Z,718.00
2023-04-14T02:29:04.180Z,740.00
2023-04-14T02:30:04.249Z,768.00
2023-04-14T02:31:04.299Z,737.00
2023-04-14T02:32:04.321Z,731.00
2023-04-14T02:33:04.447Z,678.00
2023-04-14T02:34:04.417Z,675.00
2023-04-14T02:35:04.476Z,666.00
2023-04-14T02:36:04.567Z,674.00
2023-04-14T02:37:04.554Z,660.00
2023-04-14T02:38:04.625Z,653.00
2023-04-14T02:39:04.668Z,659.00
2023-04-14T02:40:04.822Z,679.00
2023-04-14T02:41:04.785Z,669.00
2023-04-14T02:42:04.796Z,664.00
2023-04-14T02:43:04.898Z,663.00
2023-04-14T02:44:04.942Z,654.00
2023-04-14T02:45:04.977Z,657.00
2023-04-14T02:46:05.052Z,662.00
2023-04-14T02:47:05.078Z,664.00
2023-04-14T02:48:05.189Z,673.00
2023-04-14T02:49:05.201Z,672.00
2023-04-14T02:50:05.220Z,671.00
2023-04-14T02:51:05.283Z,677.00
2023-04-14T02:52:05.310Z,665.00
2023-04-14T02:53:05.384Z,686.00
2023-04-14T02:54:05.403Z,672.00
2023-04-14T02:55:05.493Z,671.00
2023-04-14T02:56:05.535Z,683.00
2023-04-14T02:57:05.595Z,679.00
2023-04-14T02:58:05.657Z,675.00
2023-04-14T02:59:05.669Z,686.00
2023-04-14T03:00:05.756Z,689.00
2023-04-14T03:01:05.804Z,687.00
2023-04-14T03:02:05.970Z,674.00
2023-04-14T03:03:06.019Z,684.00
2023-04-14T03:04:06.007Z,710.00
2023-04-14T03:05:05.992Z,740.00
2023-04-14T03:06:06.021Z,724.00
2023-04-14T03:07:06.067Z,696.00
2023-04-14T03:08:06.128Z,666.00
2023-04-14T03:09:06.161Z,666.00
2023-04-14T03:10:06.214Z,684.00
2023-04-14T03:11:06.226Z,680.00
2023-04-14T03:12:06.285Z,692.00
2023-04-14T03:13:06.330Z,711.00
2023-04-14T03:14:06.382Z,720.00
2023-04-14T03:15:06.425Z,711.00
2023-04-14T03:16:06.485Z,703.00
2023-04-14T03:17:06.498Z,708.00
2023-04-14T03:18:06.603Z,715.00
2023-04-14T03:19:06.558Z,707.00
2023-04-14T03:20:06.601Z,722.00
2023-04-14T03:21:06.604Z,706.00
2023-04-14T03:22:06.719Z,701.00
2023-04-14T03:23:06.673Z,705.00
2023-04-14T03:24:06.721Z,716.00
2023-04-14T03:25:06.726Z,715.00
2023-04-14T03:26:06.753Z,706.00
2023-04-14T03:27:06.775Z,678.00
2023-04-14T03:28:06.825Z,675.00
2023-04-14T03:29:06.857Z,683.00
2023-04-14T03:30:06.881Z,684.00
2023-04-14T03:31:06.891Z,678.00
2023-04-14T03:32:06.929Z,668.00
2023-04-14T03:33:06.906Z,665.00
2023-04-14T03:34:06.915Z,676.00
2023-04-14T03:35:06.868Z,667.00
2023-04-14T03:36:06.888Z,665.00
2023-04-14T03:37:06.884Z,664.00
2023-04-14T03:38:06.895Z,663.00
2023-04-14T03:39:06.865Z,663.00
2023-04-14T03:40:06.831Z,673.00
2023-04-14T03:41:06.858Z,664.00
2023-04-14T03:42:06.860Z,666.00
2023-04-14T03:43:06.906Z,675.00
2023-04-14T03:44:06.924Z,684.00
2023-04-14T03:45:06.922Z,674.00
2023-04-14T03:46:07.750Z,690.00
2023-04-14T03:47:06.973Z,700.00
2023-04-14T03:48:07.016Z,695.00
2023-04-14T03:49:07.069Z,715.00
2023-04-14T03:50:07.108Z,708.00
2023-04-14T03:51:07.130Z,718.00
2023-04-14T03:52:07.227Z,722.00
2023-04-14T03:53:07.299Z,720.00
2023-04-14T03:54:07.458Z,733.00
2023-04-14T03:55:07.388Z,726.00
2023-04-14T03:56:07.462Z,721.00
2023-04-14T03:57:07.549Z,722.00
2023-04-14T03:58:07.571Z,720.00
2023-04-14T03:59:09.620Z,716.00
2023-04-14T04:00:07.705Z,751.00
2023-04-14T04:01:07.791Z,762.00
2023-04-14T04:02:07.948Z,744.00
2023-04-14T04:03:07.979Z,739.00
2023-04-14T04:04:08.075Z,729.00
2023-04-14T04:05:08.045Z,737.00
2023-04-14T04:06:08.079Z,723.00
2023-04-14T04:07:08.135Z,726.00
2023-04-14T04:08:08.256Z,737.00
2023-04-14T04:09:08.269Z,749.00
2023-04-14T04:10:08.321Z,725.00
2023-04-14T04:11:08.393Z,708.00
2023-04-14T04:12:08.443Z,717.00
2023-04-14T04:13:08.531Z,743.00
2023-04-14T04:14:08.582Z,753.00
2023-04-14T04:15:08.656Z,743.00
2023-04-14T04:16:08.715Z,755.00
2023-04-14T04:17:08.755Z,726.00
2023-04-14T04:18:08.827Z,740.00
2023-04-14T04:19:08.889Z,767.00
2023-04-14T04:20:08.907Z,750.00
2023-04-14T04:21:08.998Z,735.00
2023-04-14T04:22:09.024Z,742.00
2023-04-14T04:23:09.102Z,747.00
2023-04-14T04:24:09.157Z,738.00
2023-04-14T04:25:09.166Z,754.00
2023-04-14T04:26:09.235Z,748.00
2023-04-14T04:27:20.384Z,753.00
2023-04-14T04:28:10.281Z,753.00
2023-04-14T04:29:09.306Z,758.00
2023-04-14T04:30:09.270Z,763.00
2023-04-14T04:31:09.281Z,774.00
2023-04-14T04:32:09.287Z,796.00
2023-04-14T04:33:09.313Z,795.00
2023-04-14T04:34:09.260Z,799.00
2023-04-14T04:35:09.268Z,791.00
2023-04-14T04:36:09.261Z,789.00
2023-04-14T04:37:09.255Z,795.00
2023-04-14T04:38:09.279Z,802.00
2023-04-14T04:39:09.344Z,791.00
2023-04-14T04:40:09.386Z,810.00
2023-04-14T04:41:09.446Z,812.00
2023-04-14T04:42:09.523Z,821.00
2023-04-14T04:43:09.565Z,820.00
2023-04-14T04:44:09.644Z,811.00
2023-04-14T04:45:09.684Z,817.00
2023-04-14T04:46:09.776Z,790.00
2023-04-14T04:47:09.816Z,818.00
2023-04-14T04:48:09.908Z,805.00
2023-04-14T04:49:09.921Z,815.00
2023-04-14T04:50:09.965Z,824.00
2023-04-14T04:51:10.042Z,812.00
2023-04-14T04:52:10.070Z,821.00
2023-04-14T04:53:10.124Z,822.00
2023-04-14T04:54:10.199Z,827.00
2023-04-14T04:55:10.250Z,805.00
2023-04-14T04:56:10.309Z,843.00
2023-04-14T04:57:11.192Z,825.00
2023-04-14T04:58:10.418Z,807.00
2023-04-14T04:59:10.477Z,822.00
2023-04-14T05:00:10.504Z,833.00
2023-04-14T05:01:17.602Z,843.00
2023-04-14T05:02:10.623Z,844.00
2023-04-14T05:03:10.544Z,845.00
2023-04-14T05:04:10.549Z,847.00
2023-04-14T05:05:10.529Z,833.00
2023-04-14T05:06:10.540Z,856.00
2023-04-14T05:07:10.516Z,863.00
2023-04-14T05:08:11.851Z,879.00
2023-04-14T05:09:10.706Z,892.00
2023-04-14T05:10:10.750Z,877.00
2023-04-14T05:11:10.822Z,897.00
2023-04-14T05:12:10.888Z,904.00
2023-04-14T05:13:10.936Z,905.00
2023-04-14T05:14:11.016Z,907.00
2023-04-14T05:15:11.085Z,916.00
2023-04-14T05:16:11.176Z,929.00
2023-04-14T05:17:11.190Z,922.00
2023-04-14T05:18:11.231Z,946.00
2023-04-14T05:19:11.309Z,949.00
2023-04-14T05:20:11.355Z,958.00
2023-04-14T05:21:11.424Z,975.00
2023-04-14T05:22:11.504Z,915.00
2023-04-14T05:23:11.518Z,786.00
2023-04-14T05:24:11.559Z,737.00
2023-04-14T05:25:11.620Z,798.00
2023-04-14T05:26:32.256Z,834.00
2023-04-14T05:27:14.323Z,836.00
2023-04-14T05:28:11.571Z,852.00
2023-04-14T05:29:11.611Z,917.00
2023-04-14T05:30:11.597Z,1005.00
2023-04-14T05:31:11.693Z,1148.00
2023-04-14T05:32:11.584Z,1235.00
2023-04-14T05:33:11.579Z,1182.00
2023-04-14T05:34:11.663Z,1118.00
2023-04-14T05:35:11.554Z,1187.00
2023-04-14T05:36:11.549Z,1417.00
2023-04-14T05:37:11.545Z,1459.00
2023-04-14T05:38:11.532Z,1563.00
2023-04-14T05:39:11.766Z,1860.00
2023-04-14T05:40:11.511Z,1845.00
2023-04-14T05:41:11.746Z,2006.00
2023-04-14T05:42:11.496Z,1968.00
2023-04-14T05:43:11.537Z,1957.00
2023-04-14T05:44:11.683Z,1960.00
2023-04-14T05:45:19.079Z,2016.00
2023-04-14T05:46:11.501Z,2019.00
2023-04-14T05:47:11.464Z,1996.00
2023-04-14T05:48:11.477Z,1902.00
2023-04-14T05:49:11.487Z,1937.00
2023-04-14T05:50:11.415Z,2003.00
2023-04-14T05:51:11.476Z,2015.00
2023-04-14T05:52:11.439Z,2047.00
2023-04-14T05:53:11.409Z,2091.00
2023-04-14T05:54:11.420Z,2106.00
2023-04-14T05:55:11.411Z,2173.00
2023-04-14T05:56:11.434Z,2238.00
2023-04-14T05:57:11.399Z,2296.00
2023-04-14T05:58:11.398Z,2416.00
2023-04-14T05:59:11.376Z,2490.00
2023-04-14T06:00:11.556Z,2544.00
2023-04-14T06:01:11.338Z,2583.00
2023-04-14T06:02:11.419Z,2621.00
2023-04-14T06:03:11.641Z,2671.00
2023-04-14T06:04:11.810Z,2700.00
2023-04-14T06:05:11.411Z,2728.00
2023-04-14T06:06:11.353Z,2783.00
2023-04-14T06:07:11.363Z,2838.00
2023-04-14T06:08:11.332Z,2859.00
2023-04-14T06:09:11.746Z,2906.00
2023-04-14T06:10:11.313Z,2934.00
2023-04-14T06:11:11.321Z,2966.00
2023-04-14T06:12:11.287Z,2988.00
2023-04-14T06:13:11.318Z,3051.00
2023-04-14T06:14:11.799Z,3069.00
2023-04-14T06:15:11.360Z,3080.00
2023-04-14T06:16:11.518Z,3130.00
2023-04-14T06:17:11.418Z,3143.00
2023-04-14T06:18:11.482Z,3156.00
2023-04-14T06:19:11.546Z,3174.00
2023-04-14T06:20:11.580Z,3188.00
2023-04-14T06:21:11.661Z,3225.00
2023-04-14T06:22:11.886Z,3253.00
2023-04-14T06:23:11.808Z,3278.00
2023-04-14T06:24:12.062Z,3303.00
2023-04-14T06:25:11.892Z,3327.00
2023-04-14T06:26:12.939Z,3313.00
2023-04-14T06:27:11.944Z,3333.00
2023-04-14T06:28:12.019Z,3344.00
2023-04-14T06:29:12.081Z,3341.00
2023-04-14T06:30:12.745Z,3360.00
2023-04-14T06:31:12.132Z,3349.00
2023-04-14T06:32:12.245Z,3353.00
2023-04-14T06:33:12.233Z,3375.00
2023-04-14T06:34:12.287Z,3372.00
2023-04-14T06:35:25.759Z,3379.00
2023-04-14T06:36:13.309Z,3380.00
2023-04-14T06:37:12.289Z,3383.00
2023-04-14T06:38:12.294Z,3393.00
2023-04-14T06:39:12.758Z,3332.00
2023-04-14T06:40:12.258Z,3258.00
2023-04-14T06:41:12.256Z,3326.00
2023-04-14T06:42:12.267Z,3353.00
2023-04-14T06:43:12.269Z,3338.00
2023-04-14T06:44:12.251Z,3347.00
2023-04-14T06:45:12.235Z,3333.00
2023-04-14T06:46:12.353Z,3333.00
2023-04-14T06:47:12.348Z,3321.00
2023-04-14T06:48:12.494Z,3324.00
2023-04-14T06:49:12.465Z,3315.00
2023-04-14T06:50:12.505Z,3300.00
2023-04-14T06:51:12.539Z,3301.00
2023-04-14T06:52:12.599Z,3310.00
2023-04-14T06:53:12.634Z,3296.00
2023-04-14T06:54:12.745Z,3279.00
2023-04-14T06:55:12.743Z,3288.00
2023-04-14T06:56:12.773Z,3294.00
2023-04-14T06:57:12.794Z,3280.00
2023-04-14T06:58:12.857Z,3288.00
2023-04-14T06:59:12.899Z,3280.00
2023-04-14T07:00:12.961Z,3271.00
2023-04-14T07:01:12.979Z,3273.00
2023-04-14T07:02:13.082Z,3270.00
2023-04-14T07:03:13.139Z,3278.00
2023-04-14T07:04:13.245Z,3267.00
2023-04-14T07:05:13.341Z,3254.00
2023-04-14T07:06:13.157Z,3256.00
2023-04-14T07:07:13.162Z,3270.00
2023-04-14T07:08:13.268Z,3251.00
2023-04-14T07:09:13.725Z,3249.00
2023-04-14T07:10:13.279Z,3254.00
2023-04-14T07:11:13.324Z,3254.00
2023-04-14T07:12:13.305Z,3255.00
2023-04-14T07:13:13.347Z,3251.00
2023-04-14T07:14:13.394Z,3248.00
2023-04-14T07:15:13.400Z,3260.00
2023-04-14T07:16:13.463Z,3274.00
2023-04-14T07:17:13.431Z,3269.00
2023-04-14T07:18:13.569Z,3269.00
2023-04-14T07:19:13.494Z,3268.00
2023-04-14T07:20:13.538Z,3276.00
2023-04-14T07:21:13.561Z,3299.00
2023-04-14T07:22:13.578Z,3285.00
2023-04-14T07:23:13.639Z,3277.00
2023-04-14T07:24:15.355Z,3277.00
2023-04-14T07:25:13.699Z,3283.00
2023-04-14T07:26:13.702Z,3280.00
2023-04-14T07:27:13.710Z,3282.00
2023-04-14T07:28:13.727Z,3278.00
2023-04-14T07:29:13.799Z,3286.00
2023-04-14T07:30:14.235Z,3230.00
2023-04-14T07:31:13.897Z,3090.00
2023-04-14T07:32:13.916Z,2978.00
2023-04-14T07:33:13.942Z,2938.00
2023-04-14T07:34:14.250Z,2932.00
2023-04-14T07:35:13.977Z,2879.00
2023-04-14T07:36:14.018Z,2828.00
2023-04-14T07:37:14.069Z,2804.00
2023-04-14T07:38:14.138Z,2746.00
2023-04-14T07:39:14.168Z,2708.00
2023-04-14T07:40:14.236Z,2670.00
2023-04-14T07:41:14.176Z,2614.00
2023-04-14T07:42:14.214Z,2575.00
2023-04-14T07:43:14.188Z,2681.00
2023-04-14T07:44:14.292Z,2760.00
2023-04-14T07:45:14.319Z,2792.00
2023-04-14T07:46:14.421Z,2799.00
2023-04-14T07:47:14.450Z,2813.00
2023-04-14T07:48:14.418Z,2837.00
2023-04-14T07:49:14.430Z,2838.00
2023-04-14T07:50:14.455Z,2841.00
2023-04-14T07:51:14.438Z,2868.00
2023-04-14T07:52:14.452Z,2873.00
2023-04-14T07:53:14.464Z,2899.00
2023-04-14T07:54:14.543Z,2898.00
2023-04-14T07:55:14.597Z,2823.00
2023-04-14T07:56:14.594Z,2727.00
2023-04-14T07:57:14.623Z,2661.00
2023-04-14T07:58:15.808Z,2647.00
2023-04-14T07:59:14.625Z,2618.00
2023-04-14T08:00:14.685Z,2568.00
2023-04-14T08:01:14.721Z,2510.00
2023-04-14T08:02:14.873Z,2474.00
2023-04-14T08:03:14.984Z,2444.00
2023-04-14T08:04:15.116Z,2402.00
2023-04-14T08:05:15.004Z,2378.00
2023-04-14T08:06:15.904Z,2369.00
2023-04-14T08:07:14.901Z,2341.00
2023-04-14T08:08:14.951Z,2294.00
2023-04-14T08:09:14.894Z,2264.00
2023-04-14T08:10:14.881Z,2213.00
2023-04-14T08:11:14.883Z,2214.00
2023-04-14T08:12:14.887Z,2162.00
2023-04-14T08:13:14.863Z,2124.00
2023-04-14T08:14:14.897Z,2092.00
2023-04-14T08:15:14.874Z,2075.00
2023-04-14T08:16:14.909Z,2041.00
2023-04-14T08:17:14.855Z,2016.00
2023-04-14T08:18:14.830Z,1996.00
2023-04-14T08:19:14.851Z,1981.00
2023-04-14T08:20:14.824Z,1953.00
2023-04-14T08:21:14.887Z,1928.00
2023-04-14T08:22:14.926Z,1914.00
2023-04-14T08:23:14.929Z,1895.00
2023-04-14T08:24:14.967Z,1866.00
2023-04-14T08:25:15.074Z,1829.00
2023-04-14T08:26:15.092Z,1832.00
2023-04-14T08:27:15.087Z,1795.00
2023-04-14T08:28:15.116Z,1785.00
2023-04-14T08:30:34.252Z,500.00
2023-04-14T08:31:34.091Z,500.00
2023-04-14T08:32:34.072Z,500.00
2023-04-14T08:33:34.072Z,500.00
2023-04-14T08:34:34.076Z,500.00
2023-04-14T08:35:37.436Z,512.00
2023-04-14T08:36:35.028Z,513.00
2023-04-14T08:37:34.000Z,515.00
2023-04-14T08:38:33.977Z,519.00
2023-04-14T08:39:34.005Z,520.00
2023-04-14T08:40:34.269Z,525.00
2023-04-14T08:41:34.002Z,522.00
2023-04-14T08:42:33.970Z,517.00
2023-04-14T08:43:33.983Z,522.00
2023-04-14T08:44:33.957Z,521.00
2023-04-14T08:45:33.982Z,522.00
2023-04-14T08:46:33.986Z,517.00
2023-04-14T08:47:34.115Z,527.00
2023-04-14T08:48:34.114Z,653.00
2023-04-14T08:49:34.113Z,735.00
2023-04-14T08:50:34.271Z,710.00
2023-04-14T08:51:34.215Z,647.00
2023-04-14T08:52:34.288Z,686.00
2023-04-14T08:53:34.321Z,738.00
2023-04-14T08:54:34.320Z,800.00
2023-04-14T08:55:34.787Z,825.00
2023-04-14T08:56:34.388Z,899.00
2023-04-14T08:57:35.406Z,902.00
2023-04-14T08:58:34.278Z,914.00
2023-04-14T08:59:34.351Z,955.00
2023-04-14T09:00:34.307Z,1024.00
2023-04-14T09:01:36.027Z,1143.00
2023-04-14T09:02:34.449Z,1242.00
2023-04-14T09:03:34.431Z,1318.00
2023-04-14T09:04:34.310Z,1363.00
2023-04-14T09:05:34.799Z,1358.00
2023-04-14T09:06:34.244Z,1388.00
2023-04-14T09:07:34.260Z,1420.00
2023-04-14T09:08:34.309Z,1456.00
2023-04-14T09:09:34.306Z,1469.00
2023-04-14T09:10:34.413Z,1511.00
2023-04-14T09:11:34.312Z,1497.00
2023-04-14T09:12:34.349Z,1534.00
2023-04-14T09:13:34.319Z,1557.00
2023-04-14T09:14:34.379Z,1563.00
2023-04-14T09:15:34.382Z,1571.00
2023-04-14T09:16:34.395Z,1576.00
2023-04-14T09:17:34.508Z,1594.00
2023-04-14T09:18:36.444Z,1608.00
2023-04-14T09:19:35.347Z,1643.00
2023-04-14T09:20:40.854Z,1645.00
2023-04-14T09:21:51.769Z,1647.00
2023-04-14T09:22:35.402Z,1647.00
2023-04-14T09:23:34.402Z,1659.00
2023-04-14T09:24:34.481Z,1671.00
2023-04-14T09:25:34.410Z,1692.00
2023-04-14T09:26:34.349Z,1719.00
2023-04-14T09:27:34.365Z,1724.00
2023-04-14T09:28:34.314Z,1735.00
2023-04-14T09:29:34.333Z,1757.00
2023-04-14T09:30:34.343Z,1769.00
2023-04-14T09:31:34.477Z,1786.00
2023-04-14T09:32:34.330Z,1789.00
2023-04-14T09:33:34.382Z,1780.00
2023-04-14T09:34:34.324Z,1793.00
2023-04-14T09:35:34.305Z,1796.00
2023-04-14T09:36:34.291Z,1803.00
2023-04-14T09:37:34.283Z,1824.00
2023-04-14T09:38:34.250Z,1795.00
2023-04-14T09:39:34.304Z,1813.00
2023-04-14T09:40:34.263Z,1848.00
2023-04-14T09:41:34.236Z,1844.00
2023-04-14T09:42:34.247Z,1841.00
2023-04-14T09:43:34.706Z,1818.00
2023-04-14T09:44:34.228Z,1779.00
2023-04-14T09:45:34.199Z,1752.00
2023-04-14T09:46:34.260Z,1694.00
2023-04-14T09:47:34.740Z,1625.00
2023-04-14T09:48:34.219Z,1599.00
2023-04-14T09:49:34.215Z,1550.00
2023-04-14T09:50:34.220Z,1533.00
2023-04-14T09:51:35.200Z,1526.00
2023-04-14T09:52:34.191Z,1493.00
2023-04-14T09:53:34.209Z,1469.00
2023-04-14T09:54:34.217Z,1407.00
2023-04-14T09:55:34.211Z,1320.00
2023-04-14T09:56:34.288Z,1302.00
2023-04-14T09:57:34.146Z,1250.00
2023-04-14T09:58:34.125Z,1183.00
2023-04-14T09:59:34.146Z,1131.00
2023-04-14T10:00:34.092Z,1071.00
2023-04-14T10:01:34.736Z,1028.00
2023-04-14T10:02:34.192Z,973.00
2023-04-14T10:03:34.267Z,908.00
2023-04-14T10:04:34.064Z,839.00
2023-04-14T10:05:34.996Z,800.00
2023-04-14T10:06:34.090Z,761.00
2023-04-14T10:07:34.102Z,709.00
2023-04-14T10:08:34.089Z,672.00
2023-04-14T10:09:34.039Z,645.00
2023-04-14T10:10:34.054Z,638.00
2023-04-14T10:11:33.996Z,624.00
2023-04-14T10:12:34.042Z,611.00
2023-04-14T10:13:34.026Z,608.00
2023-04-14T10:14:34.011Z,591.00
2023-04-14T10:15:34.179Z,586.00
2023-04-14T10:16:34.438Z,578.00
2023-04-14T10:17:34.420Z,564.00
2023-04-14T10:18:34.093Z,552.00
2023-04-14T10:19:34.163Z,546.00
2023-04-14T10:20:34.178Z,536.00
2023-04-14T10:21:34.247Z,518.00
2023-04-14T10:22:34.334Z,518.00
2023-04-14T10:23:34.360Z,504.00
2023-04-14T10:24:34.391Z,505.00
2023-04-14T10:25:34.450Z,502.00
2023-04-14T10:26:34.507Z,500.00
2023-04-14T10:27:34.579Z,500.00
2023-04-14T10:28:34.609Z,500.00
2023-04-14T10:29:34.664Z,506.00
2023-04-14T10:30:34.678Z,504.00
2023-04-14T10:31:34.856Z,511.00
2023-04-14T10:32:34.775Z,513.00
2023-04-14T10:33:34.829Z,507.00
2023-04-14T10:34:34.952Z,512.00
2023-04-14T10:35:34.879Z,519.00
2023-04-14T10:36:35.291Z,540.00
2023-04-14T10:37:35.009Z,513.00
2023-04-14T10:38:35.007Z,513.00
2023-04-14T10:39:35.054Z,527.00
2023-04-14T10:40:35.146Z,522.00
2023-04-14T10:41:35.304Z,500.00
2023-04-14T10:42:35.213Z,497.00
2023-04-14T10:43:35.236Z,502.00
2023-04-14T10:44:35.301Z,500.00
2023-04-14T10:45:35.217Z,513.00
2023-04-14T10:46:35.348Z,566.00
2023-04-14T10:47:35.261Z,577.00
2023-04-14T10:48:35.221Z,588.00
2023-04-14T10:49:35.239Z,590.00
2023-04-14T10:50:35.286Z,589.00
2023-04-14T10:51:35.316Z,578.00
2023-04-14T10:52:35.360Z,571.00
2023-04-14T10:53:35.438Z,571.00
2023-04-14T10:54:35.523Z,567.00
2023-04-14T10:55:40.137Z,563.00
2023-04-14T10:56:36.568Z,563.00
2023-04-14T10:57:37.052Z,563.00
2023-04-14T10:58:35.560Z,564.00
2023-04-14T10:59:35.517Z,560.00
2023-04-14T11:00:35.603Z,552.00
2023-04-14T11:01:36.047Z,549.00
2023-04-14T11:02:35.805Z,550.00
2023-04-14T11:03:35.792Z,552.00
2023-04-14T11:04:35.578Z,540.00
2023-04-14T11:05:35.529Z,542.00
2023-04-14T11:06:35.492Z,534.00
2023-04-14T11:07:35.513Z,538.00
2023-04-14T11:08:35.507Z,537.00
2023-04-14T11:09:35.479Z,532.00
2023-04-14T11:10:35.477Z,532.00
2023-04-14T11:11:35.448Z,532.00
2023-04-14T11:12:35.433Z,525.00
2023-04-14T11:13:35.421Z,524.00
2023-04-14T11:14:35.451Z,519.00
2023-04-14T11:15:35.431Z,522.00
2023-04-14T11:16:35.765Z,520.00
2023-04-14T11:17:35.568Z,520.00
2023-04-14T11:18:35.404Z,518.00
2023-04-14T11:19:35.382Z,513.00
2023-04-14T11:20:35.355Z,515.00
2023-04-14T11:21:35.360Z,508.00
2023-04-14T11:22:35.375Z,509.00
2023-04-14T11:23:35.388Z,512.00
2023-04-14T11:24:35.374Z,501.00
2023-04-14T11:25:35.372Z,503.00
2023-04-14T11:26:35.375Z,500.00
2023-04-14T11:27:35.852Z,500.00
2023-04-14T11:28:35.358Z,500.00
2023-04-14T11:29:35.323Z,503.00
2023-04-14T11:30:35.356Z,500.00
2023-04-14T11:31:35.413Z,501.00
2023-04-14T11:32:35.836Z,502.00
2023-04-14T11:33:35.518Z,502.00
2023-04-14T11:34:35.594Z,507.00
2023-04-14T11:35:35.667Z,500.00
2023-04-14T11:36:35.712Z,505.00
2023-04-14T11:37:35.781Z,502.00
2023-04-14T11:38:35.816Z,501.00
2023-04-14T11:39:35.868Z,500.00
2023-04-14T11:40:35.951Z,504.00
2023-04-14T11:41:35.996Z,504.00
2023-04-14T11:42:36.035Z,502.00
2023-04-14T11:43:36.102Z,500.00
2023-04-14T11:44:36.165Z,503.00
2023-04-14T11:45:36.219Z,500.00
2023-04-14T11:46:36.388Z,502.00
2023-04-14T11:47:36.350Z,502.00
2023-04-14T11:48:36.384Z,509.00
2023-04-14T11:49:36.459Z,513.00
2023-04-14T11:50:36.481Z,501.00
2023-04-14T11:51:36.530Z,505.00
2023-04-14T11:52:36.616Z,507.00
2023-04-14T11:53:36.653Z,504.00
2023-04-14T11:54:36.810Z,507.00
2023-04-14T11:55:36.784Z,500.00
2023-04-14T11:56:36.827Z,503.00
2023-04-14T11:57:36.870Z,506.00
2023-04-14T11:58:36.944Z,508.00
2023-04-14T11:59:37.003Z,503.00
2023-04-14T12:00:37.056Z,500.00
2023-04-14T12:01:37.118Z,503.00
2023-04-14T12:02:37.283Z,503.00
2023-04-14T12:03:37.331Z,505.00
2023-04-14T12:04:37.468Z,501.00
2023-04-14T12:05:37.399Z,506.00
2023-04-14T12:06:37.375Z,501.00
2023-04-14T12:07:37.457Z,507.00
2023-04-14T12:08:37.490Z,505.00
2023-04-14T12:09:37.571Z,503.00
2023-04-14T12:10:37.800Z,500.00
2023-04-14T12:11:37.990Z,508.00
2023-04-14T12:12:37.874Z,504.00
2023-04-14T12:13:37.722Z,502.00
2023-04-14T12:14:37.752Z,500.00
2023-04-14T12:15:37.821Z,506.00
2023-04-14T12:16:37.907Z,506.00
2023-04-14T12:17:37.967Z,455.00
2023-04-14T12:18:37.913Z,400.00
2023-04-14T12:19:37.929Z,400.00
2023-04-14T12:20:37.923Z,439.00
2023-04-14T12:21:37.975Z,482.00
2023-04-14T12:22:37.965Z,512.00